<?xml version="1.0" encoding="UTF-8" standalone="no" ?>
<gpx xmlns="http://www.topografix.com/GPX/1/1" xmlns:xsi="http://www.w3.org/2001/XMLSchema-instance" xsi:schemaLocation="http://www.topografix.com/GPX/1/1 http://www.topografix.com/GPX/1/1/gpx.xsd" version="1.1" creator="VisuGPX - https://www.visugpx.com">
  <metadata>
    <name>ROCHEFORT EN TERRE (A M)</name>
    <desc><![CDATA[parking payant donc prendre à droite en arrivant dans la descente et aussitot à droite et ensuite toujours à droite. ]]></desc>
  </metadata>
  <trk>
    <name><![CDATA[ROCHEFORT EN TERRE (A M)_1]]></name>
    <trkseg>
      <trkpt lat="47.69859" lon="-2.33646">
        <ele>25</ele>
        <time>2012-05-25T11:07:33</time>
      </trkpt>
      <trkpt lat="47.69857" lon="-2.33647">
        <ele>24</ele>
        <time>2012-05-25T11:08:02</time>
      </trkpt>
      <trkpt lat="47.69856" lon="-2.33643">
        <ele>25</ele>
        <time>2012-05-25T11:08:32</time>
      </trkpt>
      <trkpt lat="47.69854" lon="-2.3364">
        <ele>25</ele>
        <time>2012-05-25T11:09:02</time>
      </trkpt>
      <trkpt lat="47.6985" lon="-2.33642">
        <ele>24</ele>
        <time>2012-05-25T11:09:33</time>
      </trkpt>
      <trkpt lat="47.69866" lon="-2.33658">
        <ele>28</ele>
        <time>2012-05-25T11:10:03</time>
      </trkpt>
      <trkpt lat="47.69896" lon="-2.33659">
        <ele>32</ele>
        <time>2012-05-25T11:10:33</time>
      </trkpt>
      <trkpt lat="47.69918" lon="-2.33658">
        <ele>36</ele>
        <time>2012-05-25T11:11:03</time>
      </trkpt>
      <trkpt lat="47.6993" lon="-2.33631">
        <ele>39</ele>
        <time>2012-05-25T11:11:33</time>
      </trkpt>
      <trkpt lat="47.69937" lon="-2.33611">
        <ele>38</ele>
        <time>2012-05-25T11:12:03</time>
      </trkpt>
      <trkpt lat="47.69928" lon="-2.33568">
        <ele>38</ele>
        <time>2012-05-25T11:12:34</time>
      </trkpt>
      <trkpt lat="47.69924" lon="-2.33522">
        <ele>37</ele>
        <time>2012-05-25T11:13:04</time>
      </trkpt>
      <trkpt lat="47.69945" lon="-2.33502">
        <ele>36</ele>
        <time>2012-05-25T11:13:34</time>
      </trkpt>
      <trkpt lat="47.69965" lon="-2.33527">
        <ele>33</ele>
        <time>2012-05-25T11:14:04</time>
      </trkpt>
      <trkpt lat="47.69987" lon="-2.33565">
        <ele>31</ele>
        <time>2012-05-25T11:14:34</time>
      </trkpt>
      <trkpt lat="47.70005" lon="-2.33603">
        <ele>29</ele>
        <time>2012-05-25T11:15:04</time>
      </trkpt>
      <trkpt lat="47.70023" lon="-2.33646">
        <ele>27</ele>
        <time>2012-05-25T11:15:35</time>
      </trkpt>
      <trkpt lat="47.70041" lon="-2.33683">
        <ele>24</ele>
        <time>2012-05-25T11:16:05</time>
      </trkpt>
      <trkpt lat="47.70066" lon="-2.33719">
        <ele>22</ele>
        <time>2012-05-25T11:16:35</time>
      </trkpt>
      <trkpt lat="47.70096" lon="-2.33738">
        <ele>18</ele>
        <time>2012-05-25T11:17:05</time>
      </trkpt>
      <trkpt lat="47.70124" lon="-2.33763">
        <ele>15</ele>
        <time>2012-05-25T11:17:35</time>
      </trkpt>
      <trkpt lat="47.70159" lon="-2.33761">
        <ele>13</ele>
        <time>2012-05-25T11:18:05</time>
      </trkpt>
      <trkpt lat="47.70195" lon="-2.3376">
        <ele>12</ele>
        <time>2012-05-25T11:18:36</time>
      </trkpt>
      <trkpt lat="47.70233" lon="-2.33759">
        <ele>12</ele>
        <time>2012-05-25T11:19:06</time>
      </trkpt>
      <trkpt lat="47.70267" lon="-2.33764">
        <ele>11</ele>
        <time>2012-05-25T11:19:36</time>
      </trkpt>
      <trkpt lat="47.70298" lon="-2.33758">
        <ele>11</ele>
        <time>2012-05-25T11:20:06</time>
      </trkpt>
      <trkpt lat="47.70337" lon="-2.33731">
        <ele>11</ele>
        <time>2012-05-25T11:20:36</time>
      </trkpt>
      <trkpt lat="47.70368" lon="-2.33709">
        <ele>9</ele>
        <time>2012-05-25T11:21:07</time>
      </trkpt>
      <trkpt lat="47.70403" lon="-2.33686">
        <ele>10</ele>
        <time>2012-05-25T11:21:37</time>
      </trkpt>
      <trkpt lat="47.70435" lon="-2.33665">
        <ele>11</ele>
        <time>2012-05-25T11:22:07</time>
      </trkpt>
      <trkpt lat="47.70468" lon="-2.33641">
        <ele>9</ele>
        <time>2012-05-25T11:22:37</time>
      </trkpt>
      <trkpt lat="47.70498" lon="-2.33627">
        <ele>10</ele>
        <time>2012-05-25T11:23:07</time>
      </trkpt>
      <trkpt lat="47.7052" lon="-2.33586">
        <ele>10</ele>
        <time>2012-05-25T11:23:37</time>
      </trkpt>
      <trkpt lat="47.70511" lon="-2.33534">
        <ele>10</ele>
        <time>2012-05-25T11:24:08</time>
      </trkpt>
      <trkpt lat="47.70507" lon="-2.33482">
        <ele>12</ele>
        <time>2012-05-25T11:24:38</time>
      </trkpt>
      <trkpt lat="47.70506" lon="-2.33429">
        <ele>14</ele>
        <time>2012-05-25T11:25:08</time>
      </trkpt>
      <trkpt lat="47.70515" lon="-2.33379">
        <ele>16</ele>
        <time>2012-05-25T11:25:38</time>
      </trkpt>
      <trkpt lat="47.70527" lon="-2.33331">
        <ele>19</ele>
        <time>2012-05-25T11:26:08</time>
      </trkpt>
      <trkpt lat="47.70538" lon="-2.33296">
        <ele>22</ele>
        <time>2012-05-25T11:26:38</time>
      </trkpt>
      <trkpt lat="47.70561" lon="-2.33279">
        <ele>20</ele>
        <time>2012-05-25T11:27:09</time>
      </trkpt>
      <trkpt lat="47.7059" lon="-2.33268">
        <ele>15</ele>
        <time>2012-05-25T11:27:39</time>
      </trkpt>
      <trkpt lat="47.70626" lon="-2.3326">
        <ele>12</ele>
        <time>2012-05-25T11:28:09</time>
      </trkpt>
      <trkpt lat="47.70663" lon="-2.33249">
        <ele>10</ele>
        <time>2012-05-25T11:28:39</time>
      </trkpt>
      <trkpt lat="47.70699" lon="-2.33233">
        <ele>10</ele>
        <time>2012-05-25T11:29:09</time>
      </trkpt>
      <trkpt lat="47.70737" lon="-2.33219">
        <ele>10</ele>
        <time>2012-05-25T11:29:40</time>
      </trkpt>
      <trkpt lat="47.70776" lon="-2.33212">
        <ele>9</ele>
        <time>2012-05-25T11:30:10</time>
      </trkpt>
      <trkpt lat="47.70817" lon="-2.33195">
        <ele>9</ele>
        <time>2012-05-25T11:30:40</time>
      </trkpt>
      <trkpt lat="47.70851" lon="-2.3318">
        <ele>9</ele>
        <time>2012-05-25T11:31:10</time>
      </trkpt>
      <trkpt lat="47.70887" lon="-2.33176">
        <ele>8</ele>
        <time>2012-05-25T11:31:40</time>
      </trkpt>
      <trkpt lat="47.70922" lon="-2.33186">
        <ele>9</ele>
        <time>2012-05-25T11:32:10</time>
      </trkpt>
      <trkpt lat="47.70955" lon="-2.33208">
        <ele>8</ele>
        <time>2012-05-25T11:32:40</time>
      </trkpt>
      <trkpt lat="47.7099" lon="-2.33227">
        <ele>9</ele>
        <time>2012-05-25T11:33:11</time>
      </trkpt>
      <trkpt lat="47.71029" lon="-2.33233">
        <ele>10</ele>
        <time>2012-05-25T11:33:41</time>
      </trkpt>
      <trkpt lat="47.71065" lon="-2.33234">
        <ele>9</ele>
        <time>2012-05-25T11:34:11</time>
      </trkpt>
      <trkpt lat="47.71103" lon="-2.33231">
        <ele>9</ele>
        <time>2012-05-25T11:34:41</time>
      </trkpt>
      <trkpt lat="47.71137" lon="-2.3324">
        <ele>8</ele>
        <time>2012-05-25T11:35:11</time>
      </trkpt>
      <trkpt lat="47.71147" lon="-2.33281">
        <ele>6</ele>
        <time>2012-05-25T11:35:41</time>
      </trkpt>
      <trkpt lat="47.71144" lon="-2.33325">
        <ele>6</ele>
        <time>2012-05-25T11:36:12</time>
      </trkpt>
      <trkpt lat="47.71132" lon="-2.33367">
        <ele>6</ele>
        <time>2012-05-25T11:36:42</time>
      </trkpt>
      <trkpt lat="47.71153" lon="-2.33412">
        <ele>6</ele>
        <time>2012-05-25T11:37:12</time>
      </trkpt>
      <trkpt lat="47.71168" lon="-2.33456">
        <ele>6</ele>
        <time>2012-05-25T11:37:42</time>
      </trkpt>
      <trkpt lat="47.71178" lon="-2.33509">
        <ele>7</ele>
        <time>2012-05-25T11:38:12</time>
      </trkpt>
      <trkpt lat="47.71183" lon="-2.33565">
        <ele>8</ele>
        <time>2012-05-25T11:38:43</time>
      </trkpt>
      <trkpt lat="47.71194" lon="-2.33611">
        <ele>7</ele>
        <time>2012-05-25T11:39:13</time>
      </trkpt>
      <trkpt lat="47.7123" lon="-2.33613">
        <ele>8</ele>
        <time>2012-05-25T11:39:43</time>
      </trkpt>
      <trkpt lat="47.71261" lon="-2.33632">
        <ele>10</ele>
        <time>2012-05-25T11:40:13</time>
      </trkpt>
      <trkpt lat="47.713" lon="-2.33646">
        <ele>11</ele>
        <time>2012-05-25T11:40:43</time>
      </trkpt>
      <trkpt lat="47.71336" lon="-2.33653">
        <ele>11</ele>
        <time>2012-05-25T11:41:14</time>
      </trkpt>
      <trkpt lat="47.71369" lon="-2.33653">
        <ele>12</ele>
        <time>2012-05-25T11:41:44</time>
      </trkpt>
      <trkpt lat="47.71393" lon="-2.33641">
        <ele>13</ele>
        <time>2012-05-25T11:42:14</time>
      </trkpt>
      <trkpt lat="47.71421" lon="-2.33636">
        <ele>13</ele>
        <time>2012-05-25T11:42:44</time>
      </trkpt>
      <trkpt lat="47.71448" lon="-2.33633">
        <ele>16</ele>
        <time>2012-05-25T11:43:14</time>
      </trkpt>
      <trkpt lat="47.71474" lon="-2.33628">
        <ele>17</ele>
        <time>2012-05-25T11:43:45</time>
      </trkpt>
      <trkpt lat="47.71505" lon="-2.33621">
        <ele>19</ele>
        <time>2012-05-25T11:44:15</time>
      </trkpt>
      <trkpt lat="47.71532" lon="-2.33607">
        <ele>21</ele>
        <time>2012-05-25T11:44:45</time>
      </trkpt>
      <trkpt lat="47.71563" lon="-2.33586">
        <ele>23</ele>
        <time>2012-05-25T11:45:15</time>
      </trkpt>
      <trkpt lat="47.71591" lon="-2.33567">
        <ele>24</ele>
        <time>2012-05-25T11:45:45</time>
      </trkpt>
      <trkpt lat="47.71616" lon="-2.33536">
        <ele>27</ele>
        <time>2012-05-25T11:46:16</time>
      </trkpt>
      <trkpt lat="47.71634" lon="-2.33508">
        <ele>29</ele>
        <time>2012-05-25T11:46:46</time>
      </trkpt>
      <trkpt lat="47.71647" lon="-2.33496">
        <ele>30</ele>
        <time>2012-05-25T11:47:16</time>
      </trkpt>
      <trkpt lat="47.71648" lon="-2.33492">
        <ele>31</ele>
        <time>2012-05-25T11:47:46</time>
      </trkpt>
      <trkpt lat="47.71638" lon="-2.33486">
        <ele>31</ele>
        <time>2012-05-25T11:48:16</time>
      </trkpt>
      <trkpt lat="47.71651" lon="-2.33491">
        <ele>30</ele>
        <time>2012-05-25T11:48:46</time>
      </trkpt>
      <trkpt lat="47.7165" lon="-2.33488">
        <ele>31</ele>
        <time>2012-05-25T11:49:16</time>
      </trkpt>
      <trkpt lat="47.71647" lon="-2.33476">
        <ele>31</ele>
        <time>2012-05-25T11:49:47</time>
      </trkpt>
      <trkpt lat="47.71655" lon="-2.33461">
        <ele>30</ele>
        <time>2012-05-25T11:50:17</time>
      </trkpt>
      <trkpt lat="47.71675" lon="-2.33439">
        <ele>34</ele>
        <time>2012-05-25T11:50:47</time>
      </trkpt>
      <trkpt lat="47.7169" lon="-2.33436">
        <ele>38</ele>
        <time>2012-05-25T11:51:17</time>
      </trkpt>
      <trkpt lat="47.71706" lon="-2.33425">
        <ele>41</ele>
        <time>2012-05-25T11:51:48</time>
      </trkpt>
      <trkpt lat="47.71701" lon="-2.33392">
        <ele>43</ele>
        <time>2012-05-25T11:52:18</time>
      </trkpt>
      <trkpt lat="47.71702" lon="-2.33356">
        <ele>45</ele>
        <time>2012-05-25T11:52:48</time>
      </trkpt>
      <trkpt lat="47.71694" lon="-2.33331">
        <ele>44</ele>
        <time>2012-05-25T11:53:18</time>
      </trkpt>
      <trkpt lat="47.71685" lon="-2.33292">
        <ele>45</ele>
        <time>2012-05-25T11:53:48</time>
      </trkpt>
      <trkpt lat="47.71684" lon="-2.33252">
        <ele>46</ele>
        <time>2012-05-25T11:54:19</time>
      </trkpt>
      <trkpt lat="47.71682" lon="-2.33203">
        <ele>44</ele>
        <time>2012-05-25T11:54:49</time>
      </trkpt>
      <trkpt lat="47.71686" lon="-2.33173">
        <ele>41</ele>
        <time>2012-05-25T11:55:19</time>
      </trkpt>
      <trkpt lat="47.71686" lon="-2.33135">
        <ele>39</ele>
        <time>2012-05-25T11:55:49</time>
      </trkpt>
      <trkpt lat="47.71673" lon="-2.33113">
        <ele>36</ele>
        <time>2012-05-25T11:56:19</time>
      </trkpt>
      <trkpt lat="47.71679" lon="-2.33079">
        <ele>34</ele>
        <time>2012-05-25T11:56:49</time>
      </trkpt>
      <trkpt lat="47.71689" lon="-2.33041">
        <ele>31</ele>
        <time>2012-05-25T11:57:20</time>
      </trkpt>
      <trkpt lat="47.71688" lon="-2.32997">
        <ele>27</ele>
        <time>2012-05-25T11:57:50</time>
      </trkpt>
      <trkpt lat="47.71684" lon="-2.32957">
        <ele>22</ele>
        <time>2012-05-25T11:58:20</time>
      </trkpt>
      <trkpt lat="47.71674" lon="-2.32924">
        <ele>19</ele>
        <time>2012-05-25T11:58:50</time>
      </trkpt>
      <trkpt lat="47.71673" lon="-2.32875">
        <ele>20</ele>
        <time>2012-05-25T11:59:20</time>
      </trkpt>
      <trkpt lat="47.71665" lon="-2.32835">
        <ele>19</ele>
        <time>2012-05-25T11:59:50</time>
      </trkpt>
      <trkpt lat="47.71649" lon="-2.32792">
        <ele>16</ele>
        <time>2012-05-25T12:00:21</time>
      </trkpt>
      <trkpt lat="47.71629" lon="-2.32745">
        <ele>15</ele>
        <time>2012-05-25T12:00:51</time>
      </trkpt>
      <trkpt lat="47.71605" lon="-2.32704">
        <ele>12</ele>
        <time>2012-05-25T12:01:21</time>
      </trkpt>
      <trkpt lat="47.71577" lon="-2.32671">
        <ele>12</ele>
        <time>2012-05-25T12:01:51</time>
      </trkpt>
      <trkpt lat="47.71545" lon="-2.32638">
        <ele>13</ele>
        <time>2012-05-25T12:02:21</time>
      </trkpt>
      <trkpt lat="47.71508" lon="-2.326">
        <ele>13</ele>
        <time>2012-05-25T12:02:51</time>
      </trkpt>
      <trkpt lat="47.71483" lon="-2.32558">
        <ele>13</ele>
        <time>2012-05-25T12:03:22</time>
      </trkpt>
      <trkpt lat="47.7147" lon="-2.32517">
        <ele>15</ele>
        <time>2012-05-25T12:03:52</time>
      </trkpt>
      <trkpt lat="47.71451" lon="-2.32474">
        <ele>15</ele>
        <time>2012-05-25T12:04:22</time>
      </trkpt>
      <trkpt lat="47.71429" lon="-2.3243">
        <ele>16</ele>
        <time>2012-05-25T12:04:52</time>
      </trkpt>
      <trkpt lat="47.71409" lon="-2.32384">
        <ele>16</ele>
        <time>2012-05-25T12:05:22</time>
      </trkpt>
      <trkpt lat="47.71394" lon="-2.32336">
        <ele>16</ele>
        <time>2012-05-25T12:05:52</time>
      </trkpt>
      <trkpt lat="47.71368" lon="-2.32289">
        <ele>16</ele>
        <time>2012-05-25T12:06:23</time>
      </trkpt>
      <trkpt lat="47.71345" lon="-2.32244">
        <ele>16</ele>
        <time>2012-05-25T12:06:53</time>
      </trkpt>
      <trkpt lat="47.71326" lon="-2.32201">
        <ele>17</ele>
        <time>2012-05-25T12:07:23</time>
      </trkpt>
      <trkpt lat="47.71349" lon="-2.32176">
        <ele>20</ele>
        <time>2012-05-25T12:07:53</time>
      </trkpt>
      <trkpt lat="47.71365" lon="-2.32163">
        <ele>21</ele>
        <time>2012-05-25T12:08:23</time>
      </trkpt>
      <trkpt lat="47.71386" lon="-2.32151">
        <ele>24</ele>
        <time>2012-05-25T12:08:54</time>
      </trkpt>
      <trkpt lat="47.71411" lon="-2.32152">
        <ele>26</ele>
        <time>2012-05-25T12:09:24</time>
      </trkpt>
      <trkpt lat="47.71442" lon="-2.32158">
        <ele>28</ele>
        <time>2012-05-25T12:09:54</time>
      </trkpt>
      <trkpt lat="47.71473" lon="-2.32164">
        <ele>31</ele>
        <time>2012-05-25T12:10:24</time>
      </trkpt>
      <trkpt lat="47.71507" lon="-2.32162">
        <ele>32</ele>
        <time>2012-05-25T12:10:54</time>
      </trkpt>
      <trkpt lat="47.71536" lon="-2.32162">
        <ele>35</ele>
        <time>2012-05-25T12:11:24</time>
      </trkpt>
      <trkpt lat="47.71565" lon="-2.32161">
        <ele>37</ele>
        <time>2012-05-25T12:11:55</time>
      </trkpt>
      <trkpt lat="47.71579" lon="-2.3216">
        <ele>40</ele>
        <time>2012-05-25T12:12:25</time>
      </trkpt>
      <trkpt lat="47.71575" lon="-2.32157">
        <ele>39</ele>
        <time>2012-05-25T12:12:55</time>
      </trkpt>
      <trkpt lat="47.71575" lon="-2.32149">
        <ele>40</ele>
        <time>2012-05-25T12:13:25</time>
      </trkpt>
      <trkpt lat="47.71575" lon="-2.32151">
        <ele>40</ele>
        <time>2012-05-25T12:13:55</time>
      </trkpt>
      <trkpt lat="47.7158" lon="-2.32152">
        <ele>39</ele>
        <time>2012-05-25T12:14:25</time>
      </trkpt>
      <trkpt lat="47.71595" lon="-2.32152">
        <ele>39</ele>
        <time>2012-05-25T12:14:56</time>
      </trkpt>
      <trkpt lat="47.71598" lon="-2.32135">
        <ele>39</ele>
        <time>2012-05-25T12:15:26</time>
      </trkpt>
      <trkpt lat="47.71614" lon="-2.32101">
        <ele>42</ele>
        <time>2012-05-25T12:15:56</time>
      </trkpt>
      <trkpt lat="47.71636" lon="-2.3207">
        <ele>46</ele>
        <time>2012-05-25T12:16:26</time>
      </trkpt>
      <trkpt lat="47.71647" lon="-2.32062">
        <ele>46</ele>
        <time>2012-05-25T12:16:56</time>
      </trkpt>
      <trkpt lat="47.71657" lon="-2.32048">
        <ele>47</ele>
        <time>2012-05-25T12:17:27</time>
      </trkpt>
      <trkpt lat="47.71669" lon="-2.3202">
        <ele>50</ele>
        <time>2012-05-25T12:17:57</time>
      </trkpt>
      <trkpt lat="47.71675" lon="-2.31994">
        <ele>51</ele>
        <time>2012-05-25T12:18:27</time>
      </trkpt>
      <trkpt lat="47.71682" lon="-2.31949">
        <ele>53</ele>
        <time>2012-05-25T12:18:57</time>
      </trkpt>
      <trkpt lat="47.71679" lon="-2.31898">
        <ele>53</ele>
        <time>2012-05-25T12:19:27</time>
      </trkpt>
      <trkpt lat="47.71676" lon="-2.31848">
        <ele>51</ele>
        <time>2012-05-25T12:19:57</time>
      </trkpt>
      <trkpt lat="47.71674" lon="-2.31796">
        <ele>50</ele>
        <time>2012-05-25T12:20:28</time>
      </trkpt>
      <trkpt lat="47.71661" lon="-2.31744">
        <ele>50</ele>
        <time>2012-05-25T12:20:58</time>
      </trkpt>
      <trkpt lat="47.71658" lon="-2.31737">
        <ele>49</ele>
        <time>2012-05-25T12:21:28</time>
      </trkpt>
      <trkpt lat="47.71674" lon="-2.31732">
        <ele>50</ele>
        <time>2012-05-25T12:21:58</time>
      </trkpt>
      <trkpt lat="47.717" lon="-2.31737">
        <ele>53</ele>
        <time>2012-05-25T12:22:28</time>
      </trkpt>
      <trkpt lat="47.71726" lon="-2.31731">
        <ele>55</ele>
        <time>2012-05-25T12:22:58</time>
      </trkpt>
      <trkpt lat="47.71746" lon="-2.31725">
        <ele>57</ele>
        <time>2012-05-25T12:23:29</time>
      </trkpt>
      <trkpt lat="47.71775" lon="-2.31721">
        <ele>60</ele>
        <time>2012-05-25T12:23:59</time>
      </trkpt>
      <trkpt lat="47.71808" lon="-2.31708">
        <ele>63</ele>
        <time>2012-05-25T12:24:29</time>
      </trkpt>
      <trkpt lat="47.71839" lon="-2.31698">
        <ele>63</ele>
        <time>2012-05-25T12:24:59</time>
      </trkpt>
      <trkpt lat="47.71868" lon="-2.31687">
        <ele>67</ele>
        <time>2012-05-25T12:25:29</time>
      </trkpt>
      <trkpt lat="47.71887" lon="-2.31683">
        <ele>68</ele>
        <time>2012-05-25T12:25:59</time>
      </trkpt>
      <trkpt lat="47.71915" lon="-2.31669">
        <ele>69</ele>
        <time>2012-05-25T12:26:30</time>
      </trkpt>
      <trkpt lat="47.71949" lon="-2.31647">
        <ele>70</ele>
        <time>2012-05-25T12:27:00</time>
      </trkpt>
      <trkpt lat="47.71974" lon="-2.31632">
        <ele>72</ele>
        <time>2012-05-25T12:27:30</time>
      </trkpt>
      <trkpt lat="47.72008" lon="-2.31614">
        <ele>73</ele>
        <time>2012-05-25T12:28:00</time>
      </trkpt>
      <trkpt lat="47.72044" lon="-2.31595">
        <ele>73</ele>
        <time>2012-05-25T12:28:30</time>
      </trkpt>
      <trkpt lat="47.72088" lon="-2.31569">
        <ele>72</ele>
        <time>2012-05-25T12:29:01</time>
      </trkpt>
      <trkpt lat="47.7212" lon="-2.31565">
        <ele>72</ele>
        <time>2012-05-25T12:29:31</time>
      </trkpt>
      <trkpt lat="47.72154" lon="-2.31553">
        <ele>71</ele>
        <time>2012-05-25T12:30:01</time>
      </trkpt>
      <trkpt lat="47.72163" lon="-2.31537">
        <ele>71</ele>
        <time>2012-05-25T12:30:31</time>
      </trkpt>
      <trkpt lat="47.72159" lon="-2.31514">
        <ele>70</ele>
        <time>2012-05-25T12:31:01</time>
      </trkpt>
      <trkpt lat="47.72162" lon="-2.31513">
        <ele>71</ele>
        <time>2012-05-25T12:31:32</time>
      </trkpt>
      <trkpt lat="47.72159" lon="-2.31508">
        <ele>71</ele>
        <time>2012-05-25T12:32:02</time>
      </trkpt>
      <trkpt lat="47.72159" lon="-2.31501">
        <ele>71</ele>
        <time>2012-05-25T12:32:32</time>
      </trkpt>
      <trkpt lat="47.72157" lon="-2.31489">
        <ele>71</ele>
        <time>2012-05-25T12:33:02</time>
      </trkpt>
      <trkpt lat="47.72158" lon="-2.31498">
        <ele>71</ele>
        <time>2012-05-25T12:33:32</time>
      </trkpt>
      <trkpt lat="47.72156" lon="-2.31498">
        <ele>71</ele>
        <time>2012-05-25T12:34:02</time>
      </trkpt>
      <trkpt lat="47.72154" lon="-2.315">
        <ele>71</ele>
        <time>2012-05-25T12:34:33</time>
      </trkpt>
      <trkpt lat="47.72154" lon="-2.31509">
        <ele>71</ele>
        <time>2012-05-25T12:35:03</time>
      </trkpt>
      <trkpt lat="47.72156" lon="-2.31511">
        <ele>71</ele>
        <time>2012-05-25T12:35:33</time>
      </trkpt>
      <trkpt lat="47.72181" lon="-2.31502">
        <ele>69</ele>
        <time>2012-05-25T12:36:03</time>
      </trkpt>
      <trkpt lat="47.72198" lon="-2.31464">
        <ele>70</ele>
        <time>2012-05-25T12:36:33</time>
      </trkpt>
      <trkpt lat="47.72211" lon="-2.31419">
        <ele>70</ele>
        <time>2012-05-25T12:37:04</time>
      </trkpt>
      <trkpt lat="47.72219" lon="-2.31374">
        <ele>71</ele>
        <time>2012-05-25T12:37:34</time>
      </trkpt>
      <trkpt lat="47.72231" lon="-2.31324">
        <ele>71</ele>
        <time>2012-05-25T12:38:04</time>
      </trkpt>
      <trkpt lat="47.72245" lon="-2.31274">
        <ele>71</ele>
        <time>2012-05-25T12:38:34</time>
      </trkpt>
      <trkpt lat="47.72256" lon="-2.31223">
        <ele>70</ele>
        <time>2012-05-25T12:39:04</time>
      </trkpt>
      <trkpt lat="47.72267" lon="-2.31177">
        <ele>70</ele>
        <time>2012-05-25T12:39:34</time>
      </trkpt>
      <trkpt lat="47.72284" lon="-2.31123">
        <ele>68</ele>
        <time>2012-05-25T12:40:05</time>
      </trkpt>
      <trkpt lat="47.72263" lon="-2.3109">
        <ele>69</ele>
        <time>2012-05-25T12:40:35</time>
      </trkpt>
      <trkpt lat="47.72234" lon="-2.31068">
        <ele>70</ele>
        <time>2012-05-25T12:41:05</time>
      </trkpt>
      <trkpt lat="47.722" lon="-2.31056">
        <ele>70</ele>
        <time>2012-05-25T12:41:35</time>
      </trkpt>
      <trkpt lat="47.72164" lon="-2.31042">
        <ele>70</ele>
        <time>2012-05-25T12:42:06</time>
      </trkpt>
      <trkpt lat="47.72131" lon="-2.31031">
        <ele>69</ele>
        <time>2012-05-25T12:42:36</time>
      </trkpt>
      <trkpt lat="47.72095" lon="-2.31019">
        <ele>68</ele>
        <time>2012-05-25T12:43:06</time>
      </trkpt>
      <trkpt lat="47.7206" lon="-2.31004">
        <ele>69</ele>
        <time>2012-05-25T12:43:36</time>
      </trkpt>
      <trkpt lat="47.72025" lon="-2.30991">
        <ele>67</ele>
        <time>2012-05-25T12:44:06</time>
      </trkpt>
      <trkpt lat="47.71991" lon="-2.30982">
        <ele>68</ele>
        <time>2012-05-25T12:44:37</time>
      </trkpt>
      <trkpt lat="47.71955" lon="-2.30973">
        <ele>67</ele>
        <time>2012-05-25T12:45:07</time>
      </trkpt>
      <trkpt lat="47.7192" lon="-2.30992">
        <ele>66</ele>
        <time>2012-05-25T12:45:37</time>
      </trkpt>
      <trkpt lat="47.71892" lon="-2.30985">
        <ele>65</ele>
        <time>2012-05-25T12:46:07</time>
      </trkpt>
      <trkpt lat="47.7186" lon="-2.30978">
        <ele>63</ele>
        <time>2012-05-25T12:46:37</time>
      </trkpt>
      <trkpt lat="47.71827" lon="-2.30974">
        <ele>62</ele>
        <time>2012-05-25T12:47:08</time>
      </trkpt>
      <trkpt lat="47.71794" lon="-2.30958">
        <ele>60</ele>
        <time>2012-05-25T12:47:38</time>
      </trkpt>
      <trkpt lat="47.71763" lon="-2.3095">
        <ele>58</ele>
        <time>2012-05-25T12:48:08</time>
      </trkpt>
      <trkpt lat="47.71725" lon="-2.30939">
        <ele>56</ele>
        <time>2012-05-25T12:48:38</time>
      </trkpt>
      <trkpt lat="47.71692" lon="-2.30932">
        <ele>54</ele>
        <time>2012-05-25T12:49:08</time>
      </trkpt>
      <trkpt lat="47.71666" lon="-2.30926">
        <ele>48</ele>
        <time>2012-05-25T12:49:39</time>
      </trkpt>
      <trkpt lat="47.71642" lon="-2.30906">
        <ele>44</ele>
        <time>2012-05-25T12:50:09</time>
      </trkpt>
      <trkpt lat="47.71626" lon="-2.30874">
        <ele>41</ele>
        <time>2012-05-25T12:50:39</time>
      </trkpt>
      <trkpt lat="47.71612" lon="-2.30832">
        <ele>36</ele>
        <time>2012-05-25T12:51:09</time>
      </trkpt>
      <trkpt lat="47.71585" lon="-2.308">
        <ele>33</ele>
        <time>2012-05-25T12:51:39</time>
      </trkpt>
      <trkpt lat="47.71549" lon="-2.30791">
        <ele>30</ele>
        <time>2012-05-25T12:52:10</time>
      </trkpt>
      <trkpt lat="47.71524" lon="-2.30798">
        <ele>29</ele>
        <time>2012-05-25T12:52:40</time>
      </trkpt>
      <trkpt lat="47.71524" lon="-2.30796">
        <ele>28</ele>
        <time>2012-05-25T12:53:10</time>
      </trkpt>
      <trkpt lat="47.71524" lon="-2.30797">
        <ele>28</ele>
        <time>2012-05-25T12:53:40</time>
      </trkpt>
      <trkpt lat="47.7152" lon="-2.30799">
        <ele>28</ele>
        <time>2012-05-25T12:54:10</time>
      </trkpt>
      <trkpt lat="47.7151" lon="-2.30801">
        <ele>28</ele>
        <time>2012-05-25T12:54:40</time>
      </trkpt>
      <trkpt lat="47.71482" lon="-2.30822">
        <ele>28</ele>
        <time>2012-05-25T12:55:11</time>
      </trkpt>
      <trkpt lat="47.71453" lon="-2.3084">
        <ele>28</ele>
        <time>2012-05-25T12:55:41</time>
      </trkpt>
      <trkpt lat="47.71418" lon="-2.30862">
        <ele>27</ele>
        <time>2012-05-25T12:56:11</time>
      </trkpt>
      <trkpt lat="47.71385" lon="-2.3088">
        <ele>27</ele>
        <time>2012-05-25T12:56:41</time>
      </trkpt>
      <trkpt lat="47.71352" lon="-2.30891">
        <ele>29</ele>
        <time>2012-05-25T12:57:11</time>
      </trkpt>
      <trkpt lat="47.71314" lon="-2.309">
        <ele>30</ele>
        <time>2012-05-25T12:57:41</time>
      </trkpt>
      <trkpt lat="47.71282" lon="-2.30922">
        <ele>33</ele>
        <time>2012-05-25T12:58:12</time>
      </trkpt>
      <trkpt lat="47.71261" lon="-2.30953">
        <ele>35</ele>
        <time>2012-05-25T12:58:42</time>
      </trkpt>
      <trkpt lat="47.71231" lon="-2.30944">
        <ele>35</ele>
        <time>2012-05-25T12:59:12</time>
      </trkpt>
      <trkpt lat="47.71198" lon="-2.30933">
        <ele>34</ele>
        <time>2012-05-25T12:59:42</time>
      </trkpt>
      <trkpt lat="47.71181" lon="-2.30905">
        <ele>31</ele>
        <time>2012-05-25T13:00:12</time>
      </trkpt>
      <trkpt lat="47.71162" lon="-2.30878">
        <ele>29</ele>
        <time>2012-05-25T13:00:43</time>
      </trkpt>
      <trkpt lat="47.71138" lon="-2.30864">
        <ele>28</ele>
        <time>2012-05-25T13:01:13</time>
      </trkpt>
      <trkpt lat="47.71109" lon="-2.30856">
        <ele>26</ele>
        <time>2012-05-25T13:01:43</time>
      </trkpt>
      <trkpt lat="47.71101" lon="-2.30828">
        <ele>25</ele>
        <time>2012-05-25T13:02:13</time>
      </trkpt>
      <trkpt lat="47.71084" lon="-2.30791">
        <ele>22</ele>
        <time>2012-05-25T13:02:43</time>
      </trkpt>
      <trkpt lat="47.71055" lon="-2.30775">
        <ele>19</ele>
        <time>2012-05-25T13:03:13</time>
      </trkpt>
      <trkpt lat="47.71026" lon="-2.30762">
        <ele>16</ele>
        <time>2012-05-25T13:03:44</time>
      </trkpt>
      <trkpt lat="47.70995" lon="-2.30758">
        <ele>15</ele>
        <time>2012-05-25T13:04:14</time>
      </trkpt>
      <trkpt lat="47.70971" lon="-2.30795">
        <ele>17</ele>
        <time>2012-05-25T13:04:44</time>
      </trkpt>
      <trkpt lat="47.70956" lon="-2.30823">
        <ele>19</ele>
        <time>2012-05-25T13:05:14</time>
      </trkpt>
      <trkpt lat="47.70946" lon="-2.30836">
        <ele>18</ele>
        <time>2012-05-25T13:05:44</time>
      </trkpt>
      <trkpt lat="47.70934" lon="-2.30871">
        <ele>20</ele>
        <time>2012-05-25T13:06:15</time>
      </trkpt>
      <trkpt lat="47.70919" lon="-2.30907">
        <ele>14</ele>
        <time>2012-05-25T13:06:45</time>
      </trkpt>
      <trkpt lat="47.70905" lon="-2.30953">
        <ele>11</ele>
        <time>2012-05-25T13:07:15</time>
      </trkpt>
      <trkpt lat="47.709" lon="-2.31008">
        <ele>10</ele>
        <time>2012-05-25T13:07:45</time>
      </trkpt>
      <trkpt lat="47.7091" lon="-2.31067">
        <ele>8</ele>
        <time>2012-05-25T13:08:15</time>
      </trkpt>
      <trkpt lat="47.70911" lon="-2.31117">
        <ele>12</ele>
        <time>2012-05-25T13:08:45</time>
      </trkpt>
      <trkpt lat="47.70908" lon="-2.31133">
        <ele>12</ele>
        <time>2012-05-25T13:09:16</time>
      </trkpt>
      <trkpt lat="47.70909" lon="-2.31137">
        <ele>13</ele>
        <time>2012-05-25T13:09:46</time>
      </trkpt>
      <trkpt lat="47.70909" lon="-2.31135">
        <ele>13</ele>
        <time>2012-05-25T13:10:16</time>
      </trkpt>
      <trkpt lat="47.709" lon="-2.3114">
        <ele>12</ele>
        <time>2012-05-25T13:10:46</time>
      </trkpt>
      <trkpt lat="47.70867" lon="-2.31114">
        <ele>12</ele>
        <time>2012-05-25T13:11:16</time>
      </trkpt>
      <trkpt lat="47.70838" lon="-2.31097">
        <ele>12</ele>
        <time>2012-05-25T13:11:46</time>
      </trkpt>
      <trkpt lat="47.70805" lon="-2.3109">
        <ele>11</ele>
        <time>2012-05-25T13:12:17</time>
      </trkpt>
      <trkpt lat="47.70769" lon="-2.31076">
        <ele>11</ele>
        <time>2012-05-25T13:12:47</time>
      </trkpt>
      <trkpt lat="47.70731" lon="-2.31058">
        <ele>12</ele>
        <time>2012-05-25T13:13:17</time>
      </trkpt>
      <trkpt lat="47.70696" lon="-2.31044">
        <ele>13</ele>
        <time>2012-05-25T13:13:47</time>
      </trkpt>
      <trkpt lat="47.70664" lon="-2.31028">
        <ele>16</ele>
        <time>2012-05-25T13:14:17</time>
      </trkpt>
      <trkpt lat="47.70634" lon="-2.31016">
        <ele>18</ele>
        <time>2012-05-25T13:14:47</time>
      </trkpt>
      <trkpt lat="47.7061" lon="-2.31026">
        <ele>23</ele>
        <time>2012-05-25T13:15:18</time>
      </trkpt>
      <trkpt lat="47.70595" lon="-2.31072">
        <ele>24</ele>
        <time>2012-05-25T13:15:48</time>
      </trkpt>
      <trkpt lat="47.70568" lon="-2.31097">
        <ele>26</ele>
        <time>2012-05-25T13:16:18</time>
      </trkpt>
      <trkpt lat="47.70536" lon="-2.31109">
        <ele>29</ele>
        <time>2012-05-25T13:16:48</time>
      </trkpt>
      <trkpt lat="47.7051" lon="-2.31134">
        <ele>31</ele>
        <time>2012-05-25T13:17:18</time>
      </trkpt>
      <trkpt lat="47.70496" lon="-2.31179">
        <ele>34</ele>
        <time>2012-05-25T13:17:49</time>
      </trkpt>
      <trkpt lat="47.70483" lon="-2.31221">
        <ele>37</ele>
        <time>2012-05-25T13:18:19</time>
      </trkpt>
      <trkpt lat="47.70465" lon="-2.31258">
        <ele>40</ele>
        <time>2012-05-25T13:18:49</time>
      </trkpt>
      <trkpt lat="47.70447" lon="-2.31289">
        <ele>44</ele>
        <time>2012-05-25T13:19:19</time>
      </trkpt>
      <trkpt lat="47.70448" lon="-2.31273">
        <ele>46</ele>
        <time>2012-05-25T13:19:49</time>
      </trkpt>
      <trkpt lat="47.70448" lon="-2.31242">
        <ele>49</ele>
        <time>2012-05-25T13:20:20</time>
      </trkpt>
      <trkpt lat="47.70441" lon="-2.31203">
        <ele>51</ele>
        <time>2012-05-25T13:20:50</time>
      </trkpt>
      <trkpt lat="47.70419" lon="-2.3116">
        <ele>55</ele>
        <time>2012-05-25T13:21:20</time>
      </trkpt>
      <trkpt lat="47.70389" lon="-2.31134">
        <ele>57</ele>
        <time>2012-05-25T13:21:50</time>
      </trkpt>
      <trkpt lat="47.70355" lon="-2.31137">
        <ele>62</ele>
        <time>2012-05-25T13:22:20</time>
      </trkpt>
      <trkpt lat="47.70326" lon="-2.31135">
        <ele>65</ele>
        <time>2012-05-25T13:22:50</time>
      </trkpt>
      <trkpt lat="47.70299" lon="-2.31114">
        <ele>67</ele>
        <time>2012-05-25T13:23:21</time>
      </trkpt>
      <trkpt lat="47.70266" lon="-2.31097">
        <ele>68</ele>
        <time>2012-05-25T13:23:51</time>
      </trkpt>
      <trkpt lat="47.70229" lon="-2.31107">
        <ele>71</ele>
        <time>2012-05-25T13:24:21</time>
      </trkpt>
      <trkpt lat="47.70192" lon="-2.31101">
        <ele>72</ele>
        <time>2012-05-25T13:24:51</time>
      </trkpt>
      <trkpt lat="47.70171" lon="-2.31091">
        <ele>72</ele>
        <time>2012-05-25T13:25:21</time>
      </trkpt>
      <trkpt lat="47.70173" lon="-2.31095">
        <ele>72</ele>
        <time>2012-05-25T13:25:51</time>
      </trkpt>
      <trkpt lat="47.70173" lon="-2.31097">
        <ele>73</ele>
        <time>2012-05-25T13:26:22</time>
      </trkpt>
      <trkpt lat="47.70176" lon="-2.31098">
        <ele>71</ele>
        <time>2012-05-25T13:26:52</time>
      </trkpt>
      <trkpt lat="47.70173" lon="-2.31099">
        <ele>72</ele>
        <time>2012-05-25T13:27:22</time>
      </trkpt>
      <trkpt lat="47.70171" lon="-2.31103">
        <ele>73</ele>
        <time>2012-05-25T13:27:52</time>
      </trkpt>
      <trkpt lat="47.70169" lon="-2.31136">
        <ele>71</ele>
        <time>2012-05-25T13:28:22</time>
      </trkpt>
      <trkpt lat="47.7017" lon="-2.31181">
        <ele>72</ele>
        <time>2012-05-25T13:28:52</time>
      </trkpt>
      <trkpt lat="47.70175" lon="-2.31233">
        <ele>71</ele>
        <time>2012-05-25T13:29:23</time>
      </trkpt>
      <trkpt lat="47.70179" lon="-2.31282">
        <ele>71</ele>
        <time>2012-05-25T13:29:53</time>
      </trkpt>
      <trkpt lat="47.70181" lon="-2.31333">
        <ele>71</ele>
        <time>2012-05-25T13:30:23</time>
      </trkpt>
      <trkpt lat="47.70184" lon="-2.31385">
        <ele>71</ele>
        <time>2012-05-25T13:30:53</time>
      </trkpt>
      <trkpt lat="47.70191" lon="-2.31435">
        <ele>70</ele>
        <time>2012-05-25T13:31:23</time>
      </trkpt>
      <trkpt lat="47.70195" lon="-2.31489">
        <ele>70</ele>
        <time>2012-05-25T13:31:53</time>
      </trkpt>
      <trkpt lat="47.70199" lon="-2.3154">
        <ele>69</ele>
        <time>2012-05-25T13:32:24</time>
      </trkpt>
      <trkpt lat="47.70181" lon="-2.31579">
        <ele>70</ele>
        <time>2012-05-25T13:32:54</time>
      </trkpt>
      <trkpt lat="47.7015" lon="-2.31607">
        <ele>71</ele>
        <time>2012-05-25T13:33:24</time>
      </trkpt>
      <trkpt lat="47.70122" lon="-2.31643">
        <ele>71</ele>
        <time>2012-05-25T13:33:54</time>
      </trkpt>
      <trkpt lat="47.70113" lon="-2.31694">
        <ele>70</ele>
        <time>2012-05-25T13:34:25</time>
      </trkpt>
      <trkpt lat="47.70113" lon="-2.31751">
        <ele>71</ele>
        <time>2012-05-25T13:34:55</time>
      </trkpt>
      <trkpt lat="47.70108" lon="-2.31807">
        <ele>72</ele>
        <time>2012-05-25T13:35:25</time>
      </trkpt>
      <trkpt lat="47.70102" lon="-2.31865">
        <ele>71</ele>
        <time>2012-05-25T13:35:55</time>
      </trkpt>
      <trkpt lat="47.70094" lon="-2.31917">
        <ele>70</ele>
        <time>2012-05-25T13:36:25</time>
      </trkpt>
      <trkpt lat="47.70085" lon="-2.3197">
        <ele>71</ele>
        <time>2012-05-25T13:36:56</time>
      </trkpt>
      <trkpt lat="47.70075" lon="-2.32024">
        <ele>71</ele>
        <time>2012-05-25T13:37:26</time>
      </trkpt>
      <trkpt lat="47.7007" lon="-2.32079">
        <ele>71</ele>
        <time>2012-05-25T13:37:56</time>
      </trkpt>
      <trkpt lat="47.70065" lon="-2.32131">
        <ele>70</ele>
        <time>2012-05-25T13:38:26</time>
      </trkpt>
      <trkpt lat="47.7006" lon="-2.32184">
        <ele>69</ele>
        <time>2012-05-25T13:38:56</time>
      </trkpt>
      <trkpt lat="47.70051" lon="-2.32239">
        <ele>69</ele>
        <time>2012-05-25T13:39:26</time>
      </trkpt>
      <trkpt lat="47.70046" lon="-2.3229">
        <ele>68</ele>
        <time>2012-05-25T13:39:57</time>
      </trkpt>
      <trkpt lat="47.70041" lon="-2.3232">
        <ele>68</ele>
        <time>2012-05-25T13:40:27</time>
      </trkpt>
      <trkpt lat="47.70041" lon="-2.32323">
        <ele>67</ele>
        <time>2012-05-25T13:40:57</time>
      </trkpt>
      <trkpt lat="47.70042" lon="-2.32316">
        <ele>67</ele>
        <time>2012-05-25T13:41:27</time>
      </trkpt>
      <trkpt lat="47.70043" lon="-2.32309">
        <ele>68</ele>
        <time>2012-05-25T13:41:57</time>
      </trkpt>
      <trkpt lat="47.70042" lon="-2.32319">
        <ele>67</ele>
        <time>2012-05-25T13:42:27</time>
      </trkpt>
      <trkpt lat="47.70041" lon="-2.32373">
        <ele>69</ele>
        <time>2012-05-25T13:42:58</time>
      </trkpt>
      <trkpt lat="47.70044" lon="-2.32429">
        <ele>70</ele>
        <time>2012-05-25T13:43:28</time>
      </trkpt>
      <trkpt lat="47.70049" lon="-2.32481">
        <ele>70</ele>
        <time>2012-05-25T13:43:58</time>
      </trkpt>
      <trkpt lat="47.70049" lon="-2.32535">
        <ele>72</ele>
        <time>2012-05-25T13:44:28</time>
      </trkpt>
      <trkpt lat="47.70048" lon="-2.3259">
        <ele>72</ele>
        <time>2012-05-25T13:44:58</time>
      </trkpt>
      <trkpt lat="47.70037" lon="-2.32637">
        <ele>68</ele>
        <time>2012-05-25T13:45:29</time>
      </trkpt>
      <trkpt lat="47.70021" lon="-2.32666">
        <ele>66</ele>
        <time>2012-05-25T13:45:59</time>
      </trkpt>
      <trkpt lat="47.70009" lon="-2.32683">
        <ele>61</ele>
        <time>2012-05-25T13:46:29</time>
      </trkpt>
      <trkpt lat="47.70005" lon="-2.32695">
        <ele>58</ele>
        <time>2012-05-25T13:46:59</time>
      </trkpt>
      <trkpt lat="47.70007" lon="-2.32699">
        <ele>58</ele>
        <time>2012-05-25T13:47:29</time>
      </trkpt>
      <trkpt lat="47.70006" lon="-2.32698">
        <ele>58</ele>
        <time>2012-05-25T13:48:00</time>
      </trkpt>
      <trkpt lat="47.70006" lon="-2.32698">
        <ele>58</ele>
        <time>2012-05-25T13:48:30</time>
      </trkpt>
      <trkpt lat="47.70005" lon="-2.32702">
        <ele>58</ele>
        <time>2012-05-25T13:49:00</time>
      </trkpt>
      <trkpt lat="47.70005" lon="-2.32701">
        <ele>58</ele>
        <time>2012-05-25T13:49:30</time>
      </trkpt>
      <trkpt lat="47.70005" lon="-2.32703">
        <ele>57</ele>
        <time>2012-05-25T13:50:00</time>
      </trkpt>
      <trkpt lat="47.70005" lon="-2.32705">
        <ele>58</ele>
        <time>2012-05-25T13:50:30</time>
      </trkpt>
      <trkpt lat="47.70005" lon="-2.32703">
        <ele>58</ele>
        <time>2012-05-25T13:51:00</time>
      </trkpt>
      <trkpt lat="47.70007" lon="-2.327">
        <ele>58</ele>
        <time>2012-05-25T13:51:31</time>
      </trkpt>
      <trkpt lat="47.70008" lon="-2.32695">
        <ele>58</ele>
        <time>2012-05-25T13:52:01</time>
      </trkpt>
      <trkpt lat="47.70009" lon="-2.327">
        <ele>58</ele>
        <time>2012-05-25T13:52:31</time>
      </trkpt>
      <trkpt lat="47.70007" lon="-2.32704">
        <ele>58</ele>
        <time>2012-05-25T13:53:01</time>
      </trkpt>
      <trkpt lat="47.70007" lon="-2.32706">
        <ele>58</ele>
        <time>2012-05-25T13:53:31</time>
      </trkpt>
      <trkpt lat="47.70007" lon="-2.32701">
        <ele>59</ele>
        <time>2012-05-25T13:54:01</time>
      </trkpt>
      <trkpt lat="47.70008" lon="-2.32701">
        <ele>59</ele>
        <time>2012-05-25T13:54:32</time>
      </trkpt>
      <trkpt lat="47.70006" lon="-2.32704">
        <ele>59</ele>
        <time>2012-05-25T13:55:02</time>
      </trkpt>
      <trkpt lat="47.70004" lon="-2.32705">
        <ele>59</ele>
        <time>2012-05-25T13:55:32</time>
      </trkpt>
      <trkpt lat="47.70006" lon="-2.3271">
        <ele>59</ele>
        <time>2012-05-25T13:56:02</time>
      </trkpt>
      <trkpt lat="47.70007" lon="-2.32735">
        <ele>54</ele>
        <time>2012-05-25T13:56:32</time>
      </trkpt>
      <trkpt lat="47.70005" lon="-2.32769">
        <ele>50</ele>
        <time>2012-05-25T13:57:03</time>
      </trkpt>
      <trkpt lat="47.70011" lon="-2.32811">
        <ele>49</ele>
        <time>2012-05-25T13:57:33</time>
      </trkpt>
      <trkpt lat="47.7002" lon="-2.32853">
        <ele>47</ele>
        <time>2012-05-25T13:58:03</time>
      </trkpt>
      <trkpt lat="47.70026" lon="-2.32896">
        <ele>45</ele>
        <time>2012-05-25T13:58:33</time>
      </trkpt>
      <trkpt lat="47.70031" lon="-2.3294">
        <ele>40</ele>
        <time>2012-05-25T13:59:03</time>
      </trkpt>
      <trkpt lat="47.70037" lon="-2.3298">
        <ele>37</ele>
        <time>2012-05-25T13:59:33</time>
      </trkpt>
      <trkpt lat="47.7005" lon="-2.33027">
        <ele>36</ele>
        <time>2012-05-25T14:00:04</time>
      </trkpt>
      <trkpt lat="47.70072" lon="-2.33079">
        <ele>36</ele>
        <time>2012-05-25T14:00:34</time>
      </trkpt>
      <trkpt lat="47.70087" lon="-2.33128">
        <ele>39</ele>
        <time>2012-05-25T14:01:04</time>
      </trkpt>
      <trkpt lat="47.70103" lon="-2.33177">
        <ele>37</ele>
        <time>2012-05-25T14:01:34</time>
      </trkpt>
      <trkpt lat="47.70119" lon="-2.33225">
        <ele>36</ele>
        <time>2012-05-25T14:02:04</time>
      </trkpt>
      <trkpt lat="47.70136" lon="-2.33269">
        <ele>35</ele>
        <time>2012-05-25T14:02:34</time>
      </trkpt>
      <trkpt lat="47.70151" lon="-2.3332">
        <ele>36</ele>
        <time>2012-05-25T14:03:05</time>
      </trkpt>
      <trkpt lat="47.70168" lon="-2.3337">
        <ele>36</ele>
        <time>2012-05-25T14:03:35</time>
      </trkpt>
      <trkpt lat="47.70183" lon="-2.33421">
        <ele>37</ele>
        <time>2012-05-25T14:04:05</time>
      </trkpt>
      <trkpt lat="47.70195" lon="-2.33477">
        <ele>37</ele>
        <time>2012-05-25T14:04:35</time>
      </trkpt>
      <trkpt lat="47.70198" lon="-2.33526">
        <ele>32</ele>
        <time>2012-05-25T14:05:06</time>
      </trkpt>
      <trkpt lat="47.70195" lon="-2.33565">
        <ele>27</ele>
        <time>2012-05-25T14:05:36</time>
      </trkpt>
      <trkpt lat="47.70198" lon="-2.33582">
        <ele>27</ele>
        <time>2012-05-25T14:06:06</time>
      </trkpt>
      <trkpt lat="47.70196" lon="-2.33587">
        <ele>27</ele>
        <time>2012-05-25T14:06:36</time>
      </trkpt>
      <trkpt lat="47.70194" lon="-2.33609">
        <ele>26</ele>
        <time>2012-05-25T14:07:06</time>
      </trkpt>
      <trkpt lat="47.70188" lon="-2.33657">
        <ele>24</ele>
        <time>2012-05-25T14:07:37</time>
      </trkpt>
      <trkpt lat="47.70177" lon="-2.33699">
        <ele>23</ele>
        <time>2012-05-25T14:08:07</time>
      </trkpt>
      <trkpt lat="47.70174" lon="-2.33739">
        <ele>24</ele>
        <time>2012-05-25T14:08:37</time>
      </trkpt>
      <trkpt lat="47.70168" lon="-2.33754">
        <ele>24</ele>
        <time>2012-05-25T14:09:07</time>
      </trkpt>
      <trkpt lat="47.70138" lon="-2.33756">
        <ele>26</ele>
        <time>2012-05-25T14:09:37</time>
      </trkpt>
      <trkpt lat="47.70111" lon="-2.33751">
        <ele>28</ele>
        <time>2012-05-25T14:10:07</time>
      </trkpt>
      <trkpt lat="47.70087" lon="-2.33758">
        <ele>34</ele>
        <time>2012-05-25T14:10:37</time>
      </trkpt>
      <trkpt lat="47.70064" lon="-2.33767">
        <ele>37</ele>
        <time>2012-05-25T14:11:08</time>
      </trkpt>
      <trkpt lat="47.70057" lon="-2.33744">
        <ele>36</ele>
        <time>2012-05-25T14:11:38</time>
      </trkpt>
      <trkpt lat="47.70041" lon="-2.33743">
        <ele>40</ele>
        <time>2012-05-25T14:12:08</time>
      </trkpt>
      <trkpt lat="47.7003" lon="-2.33749">
        <ele>45</ele>
        <time>2012-05-25T14:12:38</time>
      </trkpt>
      <trkpt lat="47.70018" lon="-2.33747">
        <ele>50</ele>
        <time>2012-05-25T14:13:08</time>
      </trkpt>
      <trkpt lat="47.70012" lon="-2.33754">
        <ele>52</ele>
        <time>2012-05-25T14:13:39</time>
      </trkpt>
      <trkpt lat="47.70004" lon="-2.33755">
        <ele>57</ele>
        <time>2012-05-25T14:14:09</time>
      </trkpt>
      <trkpt lat="47.69982" lon="-2.3375">
        <ele>57</ele>
        <time>2012-05-25T14:14:39</time>
      </trkpt>
      <trkpt lat="47.69966" lon="-2.33758">
        <ele>58</ele>
        <time>2012-05-25T14:15:09</time>
      </trkpt>
      <trkpt lat="47.69954" lon="-2.33771">
        <ele>56</ele>
        <time>2012-05-25T14:15:39</time>
      </trkpt>
      <trkpt lat="47.69933" lon="-2.33799">
        <ele>54</ele>
        <time>2012-05-25T14:16:09</time>
      </trkpt>
      <trkpt lat="47.69919" lon="-2.33817">
        <ele>53</ele>
        <time>2012-05-25T14:16:40</time>
      </trkpt>
      <trkpt lat="47.69913" lon="-2.33802">
        <ele>51</ele>
        <time>2012-05-25T14:17:10</time>
      </trkpt>
      <trkpt lat="47.69926" lon="-2.33772">
        <ele>50</ele>
        <time>2012-05-25T14:17:40</time>
      </trkpt>
      <trkpt lat="47.69937" lon="-2.33738">
        <ele>51</ele>
        <time>2012-05-25T14:18:10</time>
      </trkpt>
      <trkpt lat="47.6995" lon="-2.33724">
        <ele>52</ele>
        <time>2012-05-25T14:18:40</time>
      </trkpt>
      <trkpt lat="47.69955" lon="-2.33692">
        <ele>51</ele>
        <time>2012-05-25T14:19:11</time>
      </trkpt>
      <trkpt lat="47.69956" lon="-2.33673">
        <ele>53</ele>
        <time>2012-05-25T14:19:41</time>
      </trkpt>
      <trkpt lat="47.69947" lon="-2.33653">
        <ele>51</ele>
        <time>2012-05-25T14:20:11</time>
      </trkpt>
      <trkpt lat="47.69936" lon="-2.33644">
        <ele>51</ele>
        <time>2012-05-25T14:20:41</time>
      </trkpt>
      <trkpt lat="47.69936" lon="-2.33637">
        <ele>52</ele>
        <time>2012-05-25T14:21:11</time>
      </trkpt>
      <trkpt lat="47.69922" lon="-2.33628">
        <ele>51</ele>
        <time>2012-05-25T14:21:41</time>
      </trkpt>
      <trkpt lat="47.69901" lon="-2.33633">
        <ele>46</ele>
        <time>2012-05-25T14:22:12</time>
      </trkpt>
      <trkpt lat="47.69878" lon="-2.3364">
        <ele>43</ele>
        <time>2012-05-25T14:22:42</time>
      </trkpt>
      <trkpt lat="47.69856" lon="-2.33649">
        <ele>40</ele>
        <time>2012-05-25T14:23:12</time>
      </trkpt>
      <trkpt lat="47.69856" lon="-2.3365">
        <ele>39</ele>
        <time>2012-05-25T14:23:18</time>
      </trkpt>
    </trkseg>
  </trk>
</gpx>